createdAt,value
2023-03-05T02:25:54.484Z,-0.24
2023-03-05T02:28:24.166Z,-0.33
2023-03-05T02:30:54.343Z,-0.38
2023-03-05T02:33:27.589Z,-0.32
2023-03-05T02:35:59.314Z,-0.25
2023-03-05T02:38:53.019Z,-0.23
2023-03-05T02:41:38.243Z,-0.13
2023-03-05T02:44:28.881Z,-0.01
2023-03-05T02:47:09.482Z,0.11
2023-03-05T02:49:44.221Z,0.18
2023-03-05T02:52:31.722Z,0.15
2023-03-05T02:55:00.893Z,0.11
2023-03-05T02:57:31.164Z,0.10
2023-03-05T03:00:00.478Z,0.05
2023-03-05T03:02:29.554Z,0.00
2023-03-05T03:04:59.248Z,-0.09
2023-03-05T03:07:28.313Z,-0.11
2023-03-05T03:09:57.423Z,-0.11
2023-03-05T03:12:26.522Z,-0.25
2023-03-05T03:14:55.706Z,-0.25
2023-03-05T03:17:24.794Z,-0.39
2023-03-05T03:19:53.621Z,-0.50
2023-03-05T03:22:23.426Z,-0.59
2023-03-05T03:24:52.426Z,-0.59
2023-03-05T03:27:21.393Z,-0.59
2023-03-05T03:29:50.603Z,-0.50
2023-03-05T03:32:19.381Z,-0.36
2023-03-05T03:34:48.350Z,-0.23
2023-03-05T03:37:18.010Z,-0.12
2023-03-05T03:39:47.915Z,0.01
2023-03-05T03:42:18.064Z,0.08
2023-03-05T03:44:48.801Z,0.16
2023-03-05T03:47:18.175Z,0.20
2023-03-05T03:49:47.140Z,0.24
2023-03-05T03:52:15.980Z,0.27
2023-03-05T03:54:44.967Z,0.24
2023-03-05T03:57:14.413Z,0.01
2023-03-05T03:59:45.565Z,-0.25
2023-03-05T04:02:15.345Z,-0.38
2023-03-05T04:04:43.949Z,-0.50
2023-03-05T08:04:35.244Z,5.28
2023-03-05T08:07:04.105Z,5.44
2023-03-05T08:09:32.190Z,5.57
2023-03-05T08:12:02.131Z,5.68
2023-03-05T08:14:31.032Z,5.82
2023-03-05T08:16:59.779Z,6.09
2023-03-05T08:19:28.978Z,5.93
2023-03-05T08:21:57.924Z,6.08
2023-03-05T08:24:29.873Z,6.08
2023-03-05T08:27:18.860Z,6.22
2023-03-05T08:29:48.113Z,6.48
2023-03-05T08:32:18.208Z,6.58
2023-03-05T08:35:17.790Z,6.66
2023-03-05T08:38:06.789Z,6.85
2023-03-05T08:40:54.851Z,6.72
2023-03-05T08:43:23.679Z,6.86
2023-03-05T08:45:54.119Z,7.03
2023-03-05T08:48:38.758Z,7.37
2023-03-05T08:51:09.280Z,7.88
2023-03-05T08:53:39.267Z,8.27
2023-03-05T08:56:09.466Z,8.59
2023-03-05T08:58:38.257Z,8.88
2023-03-05T09:01:06.785Z,9.17
2023-03-05T09:03:35.427Z,9.41
2023-03-05T09:06:14.855Z,9.63
2023-03-05T09:08:43.871Z,9.84
2023-03-05T09:11:17.486Z,10.02
2023-03-05T09:13:46.863Z,10.06
2023-03-05T09:16:16.560Z,9.83
2023-03-05T09:18:44.959Z,10.02
2023-03-05T09:21:17.741Z,10.22
2023-03-05T09:23:47.437Z,10.34
2023-03-05T09:26:21.930Z,10.30
2023-03-05T09:28:50.644Z,10.54
2023-03-05T09:31:19.980Z,10.63
2023-03-05T09:33:49.239Z,10.83
2023-03-05T09:36:22.678Z,10.76
2023-03-05T09:38:50.618Z,10.74
2023-03-05T09:41:30.001Z,10.56
2023-03-05T09:44:16.350Z,10.23
2023-03-05T09:47:06.842Z,9.91
2023-03-05T09:49:43.796Z,9.84
2023-03-05T09:52:18.309Z,9.80
2023-03-05T09:54:52.841Z,9.60
2023-03-05T09:57:39.240Z,9.42
2023-03-05T10:00:17.526Z,9.42
2023-03-05T10:02:59.082Z,9.25
2023-03-05T10:05:36.831Z,8.83
2023-03-05T10:08:06.566Z,8.80
2023-03-05T10:10:41.170Z,8.67
2023-03-05T10:13:22.987Z,8.50
2023-03-05T10:16:06.572Z,8.62
2023-03-05T10:18:55.565Z,8.55
2023-03-05T10:21:45.156Z,8.56
2023-03-05T10:24:20.137Z,8.76
2023-03-05T10:27:01.386Z,8.85
2023-03-05T10:29:42.676Z,8.97
2023-03-05T10:32:34.640Z,9.08
2023-03-05T10:35:24.422Z,9.04
2023-03-05T10:38:12.522Z,9.05
2023-03-05T10:40:43.244Z,8.97
2023-03-05T10:43:13.253Z,8.85
2023-03-05T10:45:41.183Z,8.97
2023-03-05T10:48:27.642Z,9.02
2023-03-05T10:51:19.817Z,9.13
2023-03-05T10:54:12.442Z,9.11
2023-03-05T10:56:41.115Z,9.11
2023-03-05T10:59:13.101Z,9.21
2023-03-05T11:01:42.982Z,9.31
2023-03-05T11:04:26.972Z,9.28
2023-03-05T11:06:56.014Z,9.37
2023-03-05T11:09:29.922Z,9.49
2023-03-05T11:12:08.817Z,9.58
2023-03-05T11:14:44.272Z,9.75
2023-03-05T11:17:29.964Z,9.82
2023-03-05T11:20:18.541Z,9.98
2023-03-05T11:23:08.344Z,9.98
2023-03-05T11:25:51.035Z,10.21
2023-03-05T11:28:32.022Z,10.87
2023-03-05T11:31:26.812Z,11.81
2023-03-05T11:34:25.370Z,12.76
2023-03-05T11:36:53.773Z,13.11
2023-03-05T11:39:23.859Z,13.37
2023-03-05T11:41:54.115Z,13.06
2023-03-05T11:44:25.550Z,13.48
2023-03-05T11:47:01.102Z,13.77
2023-03-05T11:49:31.428Z,13.16
2023-03-05T11:52:08.669Z,13.08
2023-03-05T11:54:42.633Z,12.69
2023-03-05T11:57:21.120Z,12.41
2023-03-05T12:00:29.026Z,12.24
2023-03-05T12:02:59.083Z,12.41
2023-03-05T12:05:29.764Z,12.03
2023-03-05T12:08:00.688Z,12.14
2023-03-05T12:10:30.344Z,11.83
2023-03-05T12:13:17.429Z,11.65
2023-03-05T12:16:00.879Z,10.80
2023-03-05T12:18:40.734Z,10.70
2023-03-05T12:21:17.272Z,11.07
2023-03-05T12:23:56.423Z,11.26
2023-03-05T12:26:44.510Z,11.44
2023-03-05T12:29:51.496Z,11.57
2023-03-05T12:32:22.468Z,10.98
2023-03-05T12:35:00.745Z,10.68
2023-03-05T12:37:29.565Z,10.70
2023-03-05T12:40:04.704Z,10.45
2023-03-05T12:42:33.875Z,10.30
2023-03-05T12:45:17.068Z,10.40
2023-03-05T12:47:55.147Z,10.43
2023-03-05T12:50:33.880Z,10.41
2023-03-05T12:53:16.745Z,10.28
2023-03-05T12:55:48.377Z,10.33
2023-03-05T12:58:32.373Z,10.26
2023-03-05T13:01:08.229Z,10.11
2023-03-05T13:03:40.688Z,9.93
2023-03-05T13:06:23.327Z,9.99
2023-03-05T13:09:15.906Z,9.99
2023-03-05T13:11:52.373Z,9.88
2023-03-05T13:14:27.168Z,9.86
2023-03-05T13:16:55.851Z,9.55
2023-03-05T13:19:24.674Z,9.33
2023-03-05T13:22:04.285Z,9.29
2023-03-05T13:24:32.420Z,8.98
2023-03-05T13:27:02.657Z,8.77
2023-03-05T13:29:32.421Z,8.26
2023-03-05T13:32:03.807Z,8.10
2023-03-05T13:34:46.601Z,8.07
2023-03-05T13:37:18.597Z,8.12
2023-03-05T13:39:52.268Z,8.14
2023-03-05T13:42:26.277Z,8.21
2023-03-05T13:45:01.866Z,8.26
2023-03-05T13:47:32.673Z,8.11
2023-03-05T13:50:07.989Z,7.95
2023-03-05T13:52:40.551Z,7.66
2023-03-05T13:55:13.638Z,7.74
2023-03-05T13:57:43.013Z,7.72
2023-03-05T14:00:29.830Z,7.70
2023-03-05T14:03:01.649Z,7.65
2023-03-05T14:05:31.723Z,7.57
2023-03-05T14:08:01.010Z,7.62
2023-03-05T14:10:29.143Z,7.62
2023-03-05T14:13:02.794Z,7.53
2023-03-05T14:15:34.668Z,7.43
2023-03-05T14:18:14.747Z,7.07
2023-03-05T14:21:06.279Z,7.17
2023-03-05T14:23:49.463Z,7.13
2023-03-05T14:26:32.723Z,7.12
2023-03-05T14:29:14.547Z,6.93
2023-03-05T14:31:52.408Z,6.92
2023-03-05T14:34:25.981Z,6.98
2023-03-05T14:36:59.084Z,6.95
2023-03-05T14:39:33.107Z,6.99
2023-03-05T14:42:35.248Z,6.93
2023-03-05T14:45:31.242Z,6.77
2023-03-05T14:48:00.849Z,6.81
2023-03-05T14:50:43.246Z,6.78
2023-03-05T14:53:26.259Z,6.75
2023-03-05T14:55:57.017Z,6.74
2023-03-05T14:58:32.473Z,6.75
2023-03-05T15:01:03.448Z,6.82
2023-03-05T15:03:35.387Z,6.87
2023-03-05T15:06:06.318Z,6.81
2023-03-05T15:08:35.999Z,6.83
2023-03-05T15:11:04.350Z,6.80
2023-03-05T15:13:33.471Z,6.67
2023-03-05T15:16:02.220Z,6.53
2023-03-05T15:18:30.910Z,6.24
2023-03-05T15:20:59.489Z,6.21
2023-03-05T15:23:29.802Z,6.17
2023-03-05T15:25:58.027Z,6.17
2023-03-05T15:28:30.227Z,6.18
2023-03-05T15:31:00.408Z,6.18
2023-03-05T15:33:28.950Z,5.94
2023-03-05T15:35:57.954Z,5.97
2023-03-05T15:38:26.105Z,5.96
2023-03-05T15:40:56.268Z,5.91
2023-03-05T15:43:25.276Z,5.94
2023-03-05T15:45:54.561Z,5.97
2023-03-05T15:48:22.680Z,5.77
2023-03-05T15:50:50.781Z,5.74
2023-03-05T15:53:20.840Z,5.66
2023-03-05T15:55:50.057Z,5.61
2023-03-05T15:58:18.728Z,5.66
2023-03-05T16:00:47.743Z,5.53
2023-03-05T16:03:15.963Z,5.51
2023-03-05T16:05:44.291Z,5.49
2023-03-05T16:08:13.183Z,5.54
2023-03-05T16:10:44.579Z,5.59
2023-03-05T16:13:15.611Z,5.59
2023-03-05T16:15:43.914Z,5.58
2023-03-05T16:18:15.559Z,5.57
2023-03-05T16:20:44.240Z,5.50
2023-03-05T16:23:13.252Z,5.48
2023-03-05T16:25:41.951Z,5.41
2023-03-05T16:28:10.976Z,5.44
2023-03-05T16:30:43.055Z,5.45
2023-03-05T16:33:11.928Z,5.29
2023-03-05T16:35:40.707Z,5.24
2023-03-05T16:38:08.763Z,5.16
2023-03-05T16:41:05.647Z,5.12
2023-03-05T16:43:27.130Z,5.12
2023-03-05T16:45:55.337Z,5.17
2023-03-05T16:48:23.385Z,5.23
2023-03-05T16:50:52.170Z,5.28
2023-03-05T16:53:21.343Z,5.30
2023-03-05T16:55:49.539Z,5.32
2023-03-05T16:58:17.516Z,5.32
2023-03-05T17:00:46.048Z,5.22
2023-03-05T17:03:14.867Z,5.18
2023-03-05T17:05:43.122Z,5.19
2023-03-05T17:08:12.317Z,5.23
2023-03-05T17:10:45.018Z,5.27
2023-03-05T17:13:13.787Z,5.25
2023-03-05T17:18:26.819Z,5.08
2023-03-05T17:20:55.922Z,5.06
2023-03-05T17:23:25.216Z,4.98
2023-03-05T17:25:54.291Z,4.84
2023-03-05T17:28:23.394Z,4.76
2023-03-05T17:30:52.610Z,4.68
2023-03-05T17:33:21.419Z,4.64
2023-03-05T17:35:52.250Z,4.68
2023-03-05T17:38:22.372Z,4.69
2023-03-05T17:40:50.779Z,4.63
2023-03-05T17:43:19.218Z,4.54
2023-03-05T17:45:49.009Z,4.60
2023-03-05T17:48:19.035Z,4.50
2023-03-05T17:50:48.299Z,4.55
2023-03-05T17:53:16.630Z,4.52
2023-03-05T17:55:48.832Z,4.54
2023-03-05T17:58:44.149Z,4.50
2023-03-05T18:01:22.109Z,4.62
2023-03-05T18:03:57.261Z,4.71
2023-03-05T18:06:26.687Z,4.71
2023-03-05T18:08:56.510Z,4.69
2023-03-05T18:11:27.657Z,4.70
2023-03-05T18:14:06.747Z,4.71
2023-03-05T18:16:36.405Z,4.67
2023-03-05T18:19:09.906Z,4.63
2023-03-05T18:21:40.532Z,4.66
2023-03-05T18:24:10.623Z,4.65
2023-03-05T18:26:38.774Z,4.68
2023-03-05T18:29:11.640Z,4.65
2023-03-05T18:31:40.515Z,4.60
2023-03-05T18:34:10.463Z,4.62
2023-03-05T18:36:39.938Z,4.62
2023-03-05T18:39:10.629Z,4.68
2023-03-05T18:41:40.342Z,4.64
2023-03-05T18:44:09.017Z,4.59
2023-03-05T18:46:37.405Z,4.51
2023-03-05T18:49:06.136Z,4.48
2023-03-05T18:51:38.200Z,4.50
2023-03-05T18:54:10.292Z,4.52
2023-03-05T18:56:39.802Z,4.54
2023-03-05T18:59:11.720Z,4.45
2023-03-05T19:05:52.172Z,4.28
2023-03-05T19:08:20.936Z,4.34
2023-03-05T19:10:50.325Z,4.42
2023-03-05T19:13:43.602Z,4.48
2023-03-05T19:16:13.372Z,4.60
2023-03-05T19:18:55.018Z,4.71
2023-03-05T19:21:33.326Z,4.83
2023-03-05T19:24:02.444Z,4.86
2023-03-05T19:26:31.669Z,4.87
2023-03-05T19:29:00.488Z,4.75
2023-03-05T19:31:28.632Z,4.81
2023-03-05T19:33:56.714Z,4.72
2023-03-05T19:36:24.703Z,4.74
2023-03-05T19:38:52.759Z,4.75
2023-03-05T19:41:21.802Z,4.62
2023-03-05T19:43:50.625Z,4.68
2023-03-05T19:46:18.929Z,4.60
2023-03-05T19:48:47.013Z,4.51
2023-03-05T19:51:29.313Z,4.40
2023-03-05T19:54:01.167Z,4.36
2023-03-05T19:56:33.478Z,4.31
2023-03-05T19:59:02.102Z,4.38
2023-03-05T20:01:31.675Z,4.48
2023-03-05T20:04:03.171Z,4.54
2023-03-05T20:06:39.593Z,4.49
2023-03-05T20:09:08.585Z,4.57
2023-03-05T20:11:39.852Z,4.68
2023-03-05T20:14:08.680Z,4.78
2023-03-05T20:16:57.624Z,4.81
2023-03-05T20:19:26.344Z,4.83
2023-03-05T20:21:54.632Z,4.90
2023-03-05T20:24:24.961Z,4.95
2023-03-05T20:26:53.651Z,5.01
2023-03-05T20:29:21.936Z,4.96
2023-03-05T20:31:52.889Z,4.90
2023-03-05T20:34:21.757Z,4.91
2023-03-05T20:36:53.545Z,4.77
2023-03-05T20:39:22.281Z,4.77
2023-03-05T20:41:53.830Z,4.77
2023-03-05T20:44:25.711Z,4.82
2023-03-05T20:47:12.734Z,4.87
2023-03-05T20:49:48.153Z,4.92
2023-03-05T20:52:17.926Z,4.99
2023-03-05T20:54:47.808Z,5.06
2023-03-05T20:57:26.958Z,5.02
2023-03-05T21:00:05.016Z,4.93
2023-03-05T21:02:33.333Z,4.88
2023-03-05T21:05:01.646Z,4.86
2023-03-05T21:07:33.429Z,4.87
2023-03-05T21:10:02.463Z,4.84
2023-03-05T21:12:32.629Z,4.78
2023-03-05T21:15:01.052Z,4.81
2023-03-05T21:17:29.260Z,4.89
2023-03-05T21:19:57.911Z,4.98
2023-03-05T21:22:29.541Z,5.07
2023-03-05T21:25:30.009Z,5.10
2023-03-05T21:28:29.971Z,5.11
2023-03-05T21:30:57.919Z,5.12
2023-03-05T21:33:27.310Z,5.15
2023-03-05T21:35:58.147Z,5.19
2023-03-05T21:38:30.531Z,5.25
2023-03-05T21:41:00.058Z,5.23
2023-03-05T21:55:00.922Z,4.93
2023-03-05T21:57:50.617Z,5.04
2023-03-05T22:00:39.859Z,4.97
